sensor_id;sensor_type;location;lat;lon;timestamp;P1;durP1;ratioP1;P2;durP2;ratioP2
18806;SDS011;9531;52.030;4.380;2022-12-18T00:02:23;238.17;;;99.10;;
18806;SDS011;9531;52.030;4.380;2022-12-18T00:04:50;212.97;;;95.03;;
18806;SDS011;9531;52.030;4.380;2022-12-18T00:07:17;228.93;;;93.33;;
18806;SDS011;9531;52.030;4.380;2022-12-18T00:09:45;240.80;;;106.97;;
18806;SDS011;9531;52.030;4.380;2022-12-18T00:12:12;251.83;;;106.93;;
18806;SDS011;9531;52.030;4.380;2022-12-18T00:14:39;224.47;;;103.90;;
18806;SDS011;9531;52.030;4.380;2022-12-18T00:17:10;212.87;;;100.97;;
18806;SDS011;9531;52.030;4.380;2022-12-18T00:19:36;196.57;;;96.67;;
18806;SDS011;9531;52.030;4.380;2022-12-18T00:22:03;199.33;;;99.77;;
18806;SDS011;9531;52.030;4.380;2022-12-18T00:24:31;198.30;;;96.03;;
18806;SDS011;9531;52.030;4.380;2022-12-18T00:26:58;209.13;;;107.10;;
18806;SDS011;9531;52.030;4.380;2022-12-18T00:29:25;203.67;;;103.63;;
18806;SDS011;9531;52.030;4.380;2022-12-18T00:31:53;163.03;;;90.20;;
18806;SDS011;9531;52.030;4.380;2022-12-18T00:34:21;206.70;;;99.27;;
18806;SDS011;9531;52.030;4.380;2022-12-18T00:36:48;193.63;;;103.47;;
18806;SDS011;9531;52.030;4.380;2022-12-18T00:39:15;205.67;;;106.20;;
18806;SDS011;9531;52.030;4.380;2022-12-18T00:41:42;211.53;;;104.93;;
18806;SDS011;9531;52.030;4.380;2022-12-18T00:44:27;178.27;;;96.07;;
18806;SDS011;9531;52.030;4.380;2022-12-18T00:46:54;187.13;;;105.20;;
18806;SDS011;9531;52.030;4.380;2022-12-18T00:49:23;186.57;;;102.20;;
18806;SDS011;9531;52.030;4.380;2022-12-18T00:51:49;204.97;;;106.63;;
18806;SDS011;9531;52.030;4.380;2022-12-18T00:54:21;156.10;;;91.00;;
18806;SDS011;9531;52.030;4.380;2022-12-18T00:56:48;200.77;;;104.43;;
18806;SDS011;9531;52.030;4.380;2022-12-18T00:59:16;243.43;;;102.87;;
18806;SDS011;9531;52.030;4.380;2022-12-18T01:01:44;268.60;;;106.60;;
18806;SDS011;9531;52.030;4.380;2022-12-18T01:04:11;272.03;;;106.23;;
18806;SDS011;9531;52.030;4.380;2022-12-18T01:06:40;267.77;;;103.23;;
18806;SDS011;9531;52.030;4.380;2022-12-18T01:09:07;261.40;;;104.83;;
18806;SDS011;9531;52.030;4.380;2022-12-18T01:11:35;258.80;;;105.90;;
18806;SDS011;9531;52.030;4.380;2022-12-18T01:14:02;289.80;;;110.77;;
18806;SDS011;9531;52.030;4.380;2022-12-18T01:16:29;280.93;;;113.13;;
18806;SDS011;9531;52.030;4.380;2022-12-18T01:18:56;302.07;;;117.97;;
18806;SDS011;9531;52.030;4.380;2022-12-18T01:21:24;296.30;;;122.60;;
18806;SDS011;9531;52.030;4.380;2022-12-18T01:23:54;249.33;;;107.97;;
18806;SDS011;9531;52.030;4.380;2022-12-18T01:26:22;273.53;;;107.37;;
18806;SDS011;9531;52.030;4.380;2022-12-18T01:28:50;279.63;;;113.07;;
18806;SDS011;9531;52.030;4.380;2022-12-18T01:31:18;238.93;;;108.87;;
18806;SDS011;9531;52.030;4.380;2022-12-18T01:33:47;246.93;;;110.33;;
18806;SDS011;9531;52.030;4.380;2022-12-18T01:36:16;224.73;;;113.70;;
18806;SDS011;9531;52.030;4.380;2022-12-18T01:38:45;197.37;;;104.37;;
18806;SDS011;9531;52.030;4.380;2022-12-18T01:41:15;216.87;;;111.57;;
18806;SDS011;9531;52.030;4.380;2022-12-18T01:43:44;253.90;;;113.53;;
18806;SDS011;9531;52.030;4.380;2022-12-18T01:46:15;263.60;;;106.60;;
18806;SDS011;9531;52.030;4.380;2022-12-18T01:48:43;306.13;;;120.07;;
18806;SDS011;9531;52.030;4.380;2022-12-18T01:51:13;229.10;;;104.70;;
18806;SDS011;9531;52.030;4.380;2022-12-18T01:53:40;258.87;;;112.40;;
18806;SDS011;9531;52.030;4.380;2022-12-18T01:56:08;275.37;;;116.33;;
18806;SDS011;9531;52.030;4.380;2022-12-18T01:58:41;280.77;;;116.33;;
18806;SDS011;9531;52.030;4.380;2022-12-18T02:01:14;272.60;;;112.17;;
18806;SDS011;9531;52.030;4.380;2022-12-18T02:03:42;261.10;;;110.20;;
18806;SDS011;9531;52.030;4.380;2022-12-18T02:06:12;313.90;;;116.87;;
18806;SDS011;9531;52.030;4.380;2022-12-18T02:08:45;289.63;;;115.87;;
18806;SDS011;9531;52.030;4.380;2022-12-18T02:11:24;275.90;;;112.87;;
18806;SDS011;9531;52.030;4.380;2022-12-18T02:14:06;290.90;;;118.53;;
18806;SDS011;9531;52.030;4.380;2022-12-18T02:16:43;303.33;;;116.83;;
18806;SDS011;9531;52.030;4.380;2022-12-18T02:19:21;300.03;;;116.70;;
18806;SDS011;9531;52.030;4.380;2022-12-18T02:24:59;262.93;;;112.83;;
18806;SDS011;9531;52.030;4.380;2022-12-18T02:27:34;258.87;;;113.47;;
18806;SDS011;9531;52.030;4.380;2022-12-18T02:30:04;270.80;;;108.43;;
18806;SDS011;9531;52.030;4.380;2022-12-18T02:32:33;270.30;;;110.57;;
18806;SDS011;9531;52.030;4.380;2022-12-18T02:35:04;281.23;;;111.87;;
18806;SDS011;9531;52.030;4.380;2022-12-18T02:37:33;268.77;;;113.93;;
18806;SDS011;9531;52.030;4.380;2022-12-18T02:40:02;261.50;;;111.50;;
18806;SDS011;9531;52.030;4.380;2022-12-18T02:42:30;281.37;;;117.90;;
18806;SDS011;9531;52.030;4.380;2022-12-18T02:45:00;263.70;;;112.67;;
18806;SDS011;9531;52.030;4.380;2022-12-18T02:47:28;302.10;;;119.40;;
18806;SDS011;9531;52.030;4.380;2022-12-18T02:49:58;277.30;;;113.77;;
18806;SDS011;9531;52.030;4.380;2022-12-18T02:52:35;332.77;;;125.00;;
18806;SDS011;9531;52.030;4.380;2022-12-18T02:55:13;338.13;;;120.07;;
18806;SDS011;9531;52.030;4.380;2022-12-18T02:57:49;312.57;;;120.57;;
18806;SDS011;9531;52.030;4.380;2022-12-18T03:00:21;258.73;;;109.30;;
18806;SDS011;9531;52.030;4.380;2022-12-18T03:02:51;280.23;;;119.30;;
18806;SDS011;9531;52.030;4.380;2022-12-18T03:05:23;266.93;;;111.07;;
18806;SDS011;9531;52.030;4.380;2022-12-18T03:07:56;258.10;;;111.70;;
18806;SDS011;9531;52.030;4.380;2022-12-18T03:10:27;249.03;;;106.90;;
18806;SDS011;9531;52.030;4.380;2022-12-18T03:13:00;244.43;;;107.07;;
18806;SDS011;9531;52.030;4.380;2022-12-18T03:15:30;239.37;;;114.10;;
18806;SDS011;9531;52.030;4.380;2022-12-18T03:18:02;249.67;;;110.70;;
18806;SDS011;9531;52.030;4.380;2022-12-18T03:20:33;244.10;;;107.53;;
18806;SDS011;9531;52.030;4.380;2022-12-18T03:23:04;256.10;;;110.80;;
18806;SDS011;9531;52.030;4.380;2022-12-18T03:25:35;242.17;;;108.37;;
18806;SDS011;9531;52.030;4.380;2022-12-18T03:28:07;240.77;;;110.10;;
18806;SDS011;9531;52.030;4.380;2022-12-18T03:30:38;235.70;;;108.07;;
18806;SDS011;9531;52.030;4.380;2022-12-18T03:33:08;237.33;;;108.23;;
18806;SDS011;9531;52.030;4.380;2022-12-18T03:35:38;230.90;;;107.17;;
18806;SDS011;9531;52.030;4.380;2022-12-18T03:38:08;214.27;;;105.63;;
18806;SDS011;9531;52.030;4.380;2022-12-18T03:40:40;233.70;;;108.87;;
18806;SDS011;9531;52.030;4.380;2022-12-18T03:43:18;205.03;;;102.97;;
18806;SDS011;9531;52.030;4.380;2022-12-18T03:45:50;224.07;;;105.73;;
18806;SDS011;9531;52.030;4.380;2022-12-18T03:48:23;203.87;;;106.03;;
18806;SDS011;9531;52.030;4.380;2022-12-18T03:50:56;200.13;;;104.57;;
18806;SDS011;9531;52.030;4.380;2022-12-18T03:53:28;195.37;;;105.13;;
18806;SDS011;9531;52.030;4.380;2022-12-18T03:56:03;210.37;;;107.77;;
18806;SDS011;9531;52.030;4.380;2022-12-18T03:58:32;199.73;;;105.73;;
18806;SDS011;9531;52.030;4.380;2022-12-18T04:01:02;174.27;;;101.53;;
18806;SDS011;9531;52.030;4.380;2022-12-18T04:03:35;189.83;;;103.97;;
18806;SDS011;9531;52.030;4.380;2022-12-18T04:06:03;197.47;;;102.77;;
18806;SDS011;9531;52.030;4.380;2022-12-18T04:08:31;188.80;;;100.57;;
18806;SDS011;9531;52.030;4.380;2022-12-18T04:10:59;208.70;;;104.33;;
18806;SDS011;9531;52.030;4.380;2022-12-18T04:13:27;196.17;;;103.43;;
18806;SDS011;9531;52.030;4.380;2022-12-18T04:15:57;176.63;;;97.23;;
18806;SDS011;9531;52.030;4.380;2022-12-18T04:18:25;169.80;;;102.23;;
18806;SDS011;9531;52.030;4.380;2022-12-18T04:20:52;170.20;;;100.40;;
18806;SDS011;9531;52.030;4.380;2022-12-18T04:23:19;169.33;;;98.47;;
18806;SDS011;9531;52.030;4.380;2022-12-18T04:25:46;168.27;;;99.57;;
18806;SDS011;9531;52.030;4.380;2022-12-18T04:28:14;174.67;;;96.93;;
18806;SDS011;9531;52.030;4.380;2022-12-18T04:30:41;171.80;;;100.37;;
18806;SDS011;9531;52.030;4.380;2022-12-18T04:33:09;164.53;;;100.17;;
18806;SDS011;9531;52.030;4.380;2022-12-18T04:35:37;169.90;;;103.53;;
18806;SDS011;9531;52.030;4.380;2022-12-18T04:38:05;168.23;;;104.20;;
18806;SDS011;9531;52.030;4.380;2022-12-18T04:40:34;169.60;;;101.00;;
18806;SDS011;9531;52.030;4.380;2022-12-18T04:43:01;176.80;;;98.23;;
18806;SDS011;9531;52.030;4.380;2022-12-18T04:45:29;171.33;;;100.67;;
18806;SDS011;9531;52.030;4.380;2022-12-18T04:47:56;168.00;;;102.03;;
18806;SDS011;9531;52.030;4.380;2022-12-18T04:50:25;176.17;;;104.63;;
18806;SDS011;9531;52.030;4.380;2022-12-18T04:52:52;175.37;;;104.67;;
18806;SDS011;9531;52.030;4.380;2022-12-18T04:55:19;176.30;;;106.57;;
18806;SDS011;9531;52.030;4.380;2022-12-18T04:57:49;169.03;;;106.10;;
18806;SDS011;9531;52.030;4.380;2022-12-18T05:00:16;186.07;;;112.00;;
18806;SDS011;9531;52.030;4.380;2022-12-18T05:02:43;178.93;;;111.93;;
18806;SDS011;9531;52.030;4.380;2022-12-18T05:05:10;181.07;;;112.13;;
18806;SDS011;9531;52.030;4.380;2022-12-18T05:07:39;184.23;;;112.33;;
18806;SDS011;9531;52.030;4.380;2022-12-18T05:10:06;182.13;;;110.13;;
18806;SDS011;9531;52.030;4.380;2022-12-18T05:12:34;172.87;;;108.53;;
18806;SDS011;9531;52.030;4.380;2022-12-18T05:15:22;174.87;;;104.83;;
18806;SDS011;9531;52.030;4.380;2022-12-18T05:17:49;171.37;;;107.30;;
18806;SDS011;9531;52.030;4.380;2022-12-18T05:20:16;157.50;;;106.80;;
18806;SDS011;9531;52.030;4.380;2022-12-18T05:22:45;168.47;;;104.97;;
18806;SDS011;9531;52.030;4.380;2022-12-18T05:25:12;162.97;;;107.77;;
18806;SDS011;9531;52.030;4.380;2022-12-18T05:27:41;170.43;;;103.63;;
18806;SDS011;9531;52.030;4.380;2022-12-18T05:30:09;173.00;;;104.50;;
18806;SDS011;9531;52.030;4.380;2022-12-18T05:32:37;168.47;;;105.57;;
18806;SDS011;9531;52.030;4.380;2022-12-18T05:35:04;174.43;;;104.90;;
18806;SDS011;9531;52.030;4.380;2022-12-18T05:37:33;180.23;;;106.30;;
18806;SDS011;9531;52.030;4.380;2022-12-18T05:40:02;182.63;;;106.50;;
18806;SDS011;9531;52.030;4.380;2022-12-18T05:42:30;193.90;;;107.40;;
18806;SDS011;9531;52.030;4.380;2022-12-18T05:44:57;192.70;;;109.30;;
18806;SDS011;9531;52.030;4.380;2022-12-18T05:47:24;199.83;;;113.63;;
18806;SDS011;9531;52.030;4.380;2022-12-18T05:49:51;197.63;;;102.47;;
18806;SDS011;9531;52.030;4.380;2022-12-18T05:52:18;203.10;;;103.40;;
18806;SDS011;9531;52.030;4.380;2022-12-18T05:54:46;208.63;;;105.57;;
18806;SDS011;9531;52.030;4.380;2022-12-18T05:57:14;204.83;;;103.97;;
18806;SDS011;9531;52.030;4.380;2022-12-18T05:59:41;189.37;;;100.13;;
18806;SDS011;9531;52.030;4.380;2022-12-18T06:02:08;201.70;;;101.27;;
18806;SDS011;9531;52.030;4.380;2022-12-18T06:04:35;201.87;;;104.67;;
18806;SDS011;9531;52.030;4.380;2022-12-18T06:07:03;202.17;;;101.30;;
18806;SDS011;9531;52.030;4.380;2022-12-18T06:09:30;190.03;;;98.40;;
18806;SDS011;9531;52.030;4.380;2022-12-18T06:11:58;191.77;;;95.93;;
18806;SDS011;9531;52.030;4.380;2022-12-18T06:14:26;184.17;;;94.90;;
18806;SDS011;9531;52.030;4.380;2022-12-18T06:16:53;185.83;;;94.20;;
18806;SDS011;9531;52.030;4.380;2022-12-18T06:19:21;193.07;;;93.57;;
18806;SDS011;9531;52.030;4.380;2022-12-18T06:21:47;183.80;;;89.30;;
18806;SDS011;9531;52.030;4.380;2022-12-18T06:26:45;192.70;;;93.33;;
18806;SDS011;9531;52.030;4.380;2022-12-18T06:29:12;201.53;;;98.27;;
18806;SDS011;9531;52.030;4.380;2022-12-18T06:31:40;194.30;;;90.57;;
18806;SDS011;9531;52.030;4.380;2022-12-18T06:34:07;204.37;;;95.27;;
18806;SDS011;9531;52.030;4.380;2022-12-18T06:36:34;201.30;;;90.57;;
18806;SDS011;9531;52.030;4.380;2022-12-18T06:39:02;185.53;;;88.43;;
18806;SDS011;9531;52.030;4.380;2022-12-18T06:41:29;189.27;;;82.63;;
18806;SDS011;9531;52.030;4.380;2022-12-18T06:43:57;179.33;;;81.87;;
18806;SDS011;9531;52.030;4.380;2022-12-18T06:46:24;185.97;;;80.40;;
18806;SDS011;9531;52.030;4.380;2022-12-18T06:48:52;183.87;;;82.63;;
18806;SDS011;9531;52.030;4.380;2022-12-18T06:51:20;176.90;;;76.97;;
18806;SDS011;9531;52.030;4.380;2022-12-18T06:53:47;180.40;;;79.90;;
18806;SDS011;9531;52.030;4.380;2022-12-18T06:56:14;194.90;;;83.50;;
18806;SDS011;9531;52.030;4.380;2022-12-18T06:58:42;184.00;;;76.40;;
18806;SDS011;9531;52.030;4.380;2022-12-18T07:01:10;173.57;;;76.37;;
18806;SDS011;9531;52.030;4.380;2022-12-18T07:03:38;193.97;;;84.27;;
18806;SDS011;9531;52.030;4.380;2022-12-18T07:06:11;165.47;;;76.23;;
18806;SDS011;9531;52.030;4.380;2022-12-18T07:08:40;179.67;;;78.83;;
18806;SDS011;9531;52.030;4.380;2022-12-18T07:13:39;159.37;;;74.27;;
18806;SDS011;9531;52.030;4.380;2022-12-18T07:16:07;163.07;;;74.20;;
18806;SDS011;9531;52.030;4.380;2022-12-18T07:18:36;160.87;;;80.20;;
18806;SDS011;9531;52.030;4.380;2022-12-18T07:21:07;166.53;;;89.63;;
18806;SDS011;9531;52.030;4.380;2022-12-18T07:23:35;168.47;;;91.50;;
18806;SDS011;9531;52.030;4.380;2022-12-18T07:26:02;170.67;;;92.70;;
18806;SDS011;9531;52.030;4.380;2022-12-18T07:28:31;155.57;;;83.97;;
18806;SDS011;9531;52.030;4.380;2022-12-18T07:31:01;161.67;;;87.73;;
18806;SDS011;9531;52.030;4.380;2022-12-18T07:33:28;156.30;;;80.40;;
18806;SDS011;9531;52.030;4.380;2022-12-18T07:35:55;165.17;;;86.07;;
18806;SDS011;9531;52.030;4.380;2022-12-18T07:38:25;164.63;;;83.20;;
18806;SDS011;9531;52.030;4.380;2022-12-18T07:40:52;162.13;;;76.37;;
18806;SDS011;9531;52.030;4.380;2022-12-18T07:43:20;157.63;;;79.07;;
18806;SDS011;9531;52.030;4.380;2022-12-18T07:45:48;164.73;;;81.77;;
18806;SDS011;9531;52.030;4.380;2022-12-18T07:48:16;165.37;;;81.40;;
18806;SDS011;9531;52.030;4.380;2022-12-18T07:50:44;155.10;;;82.03;;
18806;SDS011;9531;52.030;4.380;2022-12-18T07:53:13;151.80;;;78.33;;
18806;SDS011;9531;52.030;4.380;2022-12-18T07:55:42;146.73;;;81.00;;
18806;SDS011;9531;52.030;4.380;2022-12-18T07:58:09;150.23;;;73.93;;
18806;SDS011;9531;52.030;4.380;2022-12-18T08:00:36;135.73;;;74.10;;
18806;SDS011;9531;52.030;4.380;2022-12-18T08:03:03;147.40;;;78.70;;
18806;SDS011;9531;52.030;4.380;2022-12-18T08:05:31;146.63;;;83.73;;
18806;SDS011;9531;52.030;4.380;2022-12-18T08:07:58;154.87;;;83.00;;
18806;SDS011;9531;52.030;4.380;2022-12-18T08:10:27;154.27;;;82.90;;
18806;SDS011;9531;52.030;4.380;2022-12-18T08:12:55;133.40;;;82.60;;
18806;SDS011;9531;52.030;4.380;2022-12-18T08:15:23;128.23;;;74.13;;
18806;SDS011;9531;52.030;4.380;2022-12-18T08:17:50;124.93;;;75.20;;
18806;SDS011;9531;52.030;4.380;2022-12-18T08:20:17;115.80;;;78.00;;
18806;SDS011;9531;52.030;4.380;2022-12-18T08:22:44;116.90;;;80.27;;
18806;SDS011;9531;52.030;4.380;2022-12-18T08:25:12;112.17;;;78.33;;
18806;SDS011;9531;52.030;4.380;2022-12-18T08:27:40;119.23;;;81.97;;
18806;SDS011;9531;52.030;4.380;2022-12-18T08:30:09;139.47;;;79.37;;
18806;SDS011;9531;52.030;4.380;2022-12-18T08:32:37;116.77;;;83.37;;
18806;SDS011;9531;52.030;4.380;2022-12-18T08:35:04;120.40;;;88.43;;
18806;SDS011;9531;52.030;4.380;2022-12-18T08:37:33;121.13;;;82.50;;
18806;SDS011;9531;52.030;4.380;2022-12-18T08:40:00;117.70;;;80.67;;
18806;SDS011;9531;52.030;4.380;2022-12-18T08:42:27;113.13;;;81.13;;
18806;SDS011;9531;52.030;4.380;2022-12-18T08:45:13;109.83;;;83.37;;
18806;SDS011;9531;52.030;4.380;2022-12-18T08:47:41;104.70;;;83.13;;
18806;SDS011;9531;52.030;4.380;2022-12-18T08:50:09;103.50;;;81.37;;
18806;SDS011;9531;52.030;4.380;2022-12-18T08:52:36;125.97;;;82.67;;
18806;SDS011;9531;52.030;4.380;2022-12-18T08:55:04;106.03;;;77.27;;
18806;SDS011;9531;52.030;4.380;2022-12-18T08:57:32;111.63;;;77.00;;
18806;SDS011;9531;52.030;4.380;2022-12-18T08:59:59;96.47;;;73.13;;
18806;SDS011;9531;52.030;4.380;2022-12-18T09:02:28;114.03;;;73.07;;
18806;SDS011;9531;52.030;4.380;2022-12-18T09:04:55;104.13;;;73.30;;
18806;SDS011;9531;52.030;4.380;2022-12-18T09:07:22;111.27;;;74.97;;
18806;SDS011;9531;52.030;4.380;2022-12-18T09:09:49;98.07;;;62.30;;
18806;SDS011;9531;52.030;4.380;2022-12-18T09:12:16;133.13;;;78.17;;
18806;SDS011;9531;52.030;4.380;2022-12-18T09:14:43;121.13;;;72.97;;
18806;SDS011;9531;52.030;4.380;2022-12-18T09:17:12;116.37;;;70.23;;
18806;SDS011;9531;52.030;4.380;2022-12-18T09:19:40;111.30;;;73.30;;
18806;SDS011;9531;52.030;4.380;2022-12-18T09:22:07;116.77;;;69.17;;
18806;SDS011;9531;52.030;4.380;2022-12-18T09:24:34;131.87;;;73.60;;
18806;SDS011;9531;52.030;4.380;2022-12-18T09:27:01;124.63;;;66.83;;
18806;SDS011;9531;52.030;4.380;2022-12-18T09:29:28;129.20;;;72.20;;
18806;SDS011;9531;52.030;4.380;2022-12-18T09:31:56;118.47;;;65.23;;
18806;SDS011;9531;52.030;4.380;2022-12-18T09:34:23;103.60;;;64.90;;
18806;SDS011;9531;52.030;4.380;2022-12-18T09:36:52;147.40;;;73.67;;
18806;SDS011;9531;52.030;4.380;2022-12-18T19:27:36;272.08;;;118.88;;
18806;SDS011;9531;52.030;4.380;2022-12-18T19:30:04;264.52;;;85.20;;
18806;SDS011;9531;52.030;4.380;2022-12-18T19:32:32;325.10;;;76.63;;
18806;SDS011;9531;52.030;4.380;2022-12-18T19:34:59;313.77;;;75.57;;
18806;SDS011;9531;52.030;4.380;2022-12-18T19:37:26;231.38;;;74.53;;
18806;SDS011;9531;52.030;4.380;2022-12-18T19:39:53;388.27;;;72.13;;
18806;SDS011;9531;52.030;4.380;2022-12-18T19:42:20;321.15;;;73.88;;
18806;SDS011;9531;52.030;4.380;2022-12-18T19:44:49;309.77;;;75.45;;
18806;SDS011;9531;52.030;4.380;2022-12-18T19:47:16;290.85;;;80.80;;
18806;SDS011;9531;52.030;4.380;2022-12-18T19:49:43;261.58;;;75.53;;
18806;SDS011;9531;52.030;4.380;2022-12-18T19:52:10;295.17;;;76.72;;
18806;SDS011;9531;52.030;4.380;2022-12-18T19:54:40;358.27;;;75.10;;
18806;SDS011;9531;52.030;4.380;2022-12-18T19:57:07;396.42;;;79.03;;
18806;SDS011;9531;52.030;4.380;2022-12-18T19:59:35;470.00;;;81.53;;
18806;SDS011;9531;52.030;4.380;2022-12-18T20:02:04;384.60;;;96.68;;
18806;SDS011;9531;52.030;4.380;2022-12-18T20:04:31;443.00;;;82.07;;
18806;SDS011;9531;52.030;4.380;2022-12-18T20:06:58;352.25;;;73.05;;
18806;SDS011;9531;52.030;4.380;2022-12-18T20:09:25;274.10;;;75.53;;
18806;SDS011;9531;52.030;4.380;2022-12-18T20:11:52;365.55;;;82.07;;
18806;SDS011;9531;52.030;4.380;2022-12-18T20:14:20;391.40;;;83.20;;
18806;SDS011;9531;52.030;4.380;2022-12-18T20:16:47;407.88;;;83.30;;
18806;SDS011;9531;52.030;4.380;2022-12-18T20:19:16;416.40;;;84.55;;
18806;SDS011;9531;52.030;4.380;2022-12-18T20:21:42;425.50;;;85.13;;
18806;SDS011;9531;52.030;4.380;2022-12-18T20:24:10;433.40;;;84.00;;
18806;SDS011;9531;52.030;4.380;2022-12-18T20:26:37;438.02;;;86.63;;
18806;SDS011;9531;52.030;4.380;2022-12-18T20:29:04;466.92;;;84.57;;
18806;SDS011;9531;52.030;4.380;2022-12-18T20:31:31;583.72;;;98.95;;
18806;SDS011;9531;52.030;4.380;2022-12-18T20:33:58;616.92;;;96.30;;
18806;SDS011;9531;52.030;4.380;2022-12-18T20:36:27;919.95;;;124.53;;
18806;SDS011;9531;52.030;4.380;2022-12-18T20:38:54;1162.47;;;138.57;;
18806;SDS011;9531;52.030;4.380;2022-12-18T20:41:21;1054.97;;;105.00;;
18806;SDS011;9531;52.030;4.380;2022-12-18T20:43:48;987.70;;;106.55;;
18806;SDS011;9531;52.030;4.380;2022-12-18T20:46:16;939.00;;;99.63;;
18806;SDS011;9531;52.030;4.380;2022-12-18T20:48:43;913.38;;;96.95;;
18806;SDS011;9531;52.030;4.380;2022-12-18T20:51:11;882.67;;;95.03;;
18806;SDS011;9531;52.030;4.380;2022-12-18T20:53:40;892.00;;;93.90;;
18806;SDS011;9531;52.030;4.380;2022-12-18T20:56:08;878.60;;;94.40;;
18806;SDS011;9531;52.030;4.380;2022-12-18T20:58:36;886.28;;;98.65;;
18806;SDS011;9531;52.030;4.380;2022-12-18T21:01:04;914.80;;;98.07;;
18806;SDS011;9531;52.030;4.380;2022-12-18T21:03:32;924.53;;;94.43;;
18806;SDS011;9531;52.030;4.380;2022-12-18T21:06:02;927.53;;;99.28;;
18806;SDS011;9531;52.030;4.380;2022-12-18T21:08:30;895.22;;;97.55;;
18806;SDS011;9531;52.030;4.380;2022-12-18T21:11:00;879.78;;;96.60;;
18806;SDS011;9531;52.030;4.380;2022-12-18T21:13:58;832.55;;;93.22;;
18806;SDS011;9531;52.030;4.380;2022-12-18T21:16:25;859.78;;;93.63;;
18806;SDS011;9531;52.030;4.380;2022-12-18T21:18:52;858.65;;;95.32;;
18806;SDS011;9531;52.030;4.380;2022-12-18T21:21:20;860.00;;;94.57;;
18806;SDS011;9531;52.030;4.380;2022-12-18T21:23:47;839.60;;;98.00;;
18806;SDS011;9531;52.030;4.380;2022-12-18T21:26:17;865.22;;;96.15;;
18806;SDS011;9531;52.030;4.380;2022-12-18T21:28:47;899.13;;;93.93;;
18806;SDS011;9531;52.030;4.380;2022-12-18T21:31:14;913.35;;;96.78;;
18806;SDS011;9531;52.030;4.380;2022-12-18T21:33:41;931.20;;;98.43;;
18806;SDS011;9531;52.030;4.380;2022-12-18T21:36:09;942.05;;;100.03;;
18806;SDS011;9531;52.030;4.380;2022-12-18T21:38:35;967.28;;;98.65;;
18806;SDS011;9531;52.030;4.380;2022-12-18T21:41:06;974.17;;;95.60;;
18806;SDS011;9531;52.030;4.380;2022-12-18T21:43:34;1028.93;;;97.93;;
18806;SDS011;9531;52.030;4.380;2022-12-18T21:46:16;1012.78;;;102.05;;
18806;SDS011;9531;52.030;4.380;2022-12-18T21:48:43;1036.47;;;104.93;;
18806;SDS011;9531;52.030;4.380;2022-12-18T21:51:10;1043.60;;;106.35;;
18806;SDS011;9531;52.030;4.380;2022-12-18T21:53:37;1029.35;;;100.53;;
18806;SDS011;9531;52.030;4.380;2022-12-18T21:56:04;1032.15;;;103.22;;
18806;SDS011;9531;52.030;4.380;2022-12-18T21:58:32;1024.25;;;102.70;;
18806;SDS011;9531;52.030;4.380;2022-12-18T22:01:00;1021.42;;;101.43;;
18806;SDS011;9531;52.030;4.380;2022-12-18T22:03:27;1025.50;;;103.00;;
18806;SDS011;9531;52.030;4.380;2022-12-18T22:05:56;1018.28;;;100.85;;
18806;SDS011;9531;52.030;4.380;2022-12-18T22:08:23;910.47;;;102.30;;
18806;SDS011;9531;52.030;4.380;2022-12-18T22:10:50;921.78;;;108.03;;
18806;SDS011;9531;52.030;4.380;2022-12-18T22:13:17;932.35;;;105.57;;
18806;SDS011;9531;52.030;4.380;2022-12-18T22:15:44;930.95;;;107.03;;
18806;SDS011;9531;52.030;4.380;2022-12-18T22:18:13;942.75;;;101.03;;
18806;SDS011;9531;52.030;4.380;2022-12-18T22:20:39;944.03;;;100.90;;
18806;SDS011;9531;52.030;4.380;2022-12-18T22:23:06;935.85;;;97.38;;
18806;SDS011;9531;52.030;4.380;2022-12-18T22:25:34;949.95;;;98.95;;
18806;SDS011;9531;52.030;4.380;2022-12-18T22:28:01;954.83;;;101.90;;
18806;SDS011;9531;52.030;4.380;2022-12-18T22:30:46;949.97;;;103.20;;
18806;SDS011;9531;52.030;4.380;2022-12-18T22:33:16;954.60;;;104.78;;
18806;SDS011;9531;52.030;4.380;2022-12-18T22:35:42;952.95;;;101.68;;
18806;SDS011;9531;52.030;4.380;2022-12-18T22:38:09;946.85;;;100.38;;
18806;SDS011;9531;52.030;4.380;2022-12-18T22:40:36;959.35;;;101.03;;
18806;SDS011;9531;52.030;4.380;2022-12-18T22:43:04;967.45;;;98.47;;
18806;SDS011;9531;52.030;4.380;2022-12-18T22:45:31;1000.78;;;104.00;;
18806;SDS011;9531;52.030;4.380;2022-12-18T22:47:58;1003.53;;;104.38;;
18806;SDS011;9531;52.030;4.380;2022-12-18T22:50:26;1002.80;;;102.20;;
18806;SDS011;9531;52.030;4.380;2022-12-18T22:52:53;1004.15;;;101.75;;
18806;SDS011;9531;52.030;4.380;2022-12-18T22:55:20;9.00;;;7.57;;
18806;SDS011;9531;52.030;4.380;2022-12-18T22:57:50;11.88;;;8.02;;
18806;SDS011;9531;52.030;4.380;2022-12-18T23:00:17;8.63;;;7.28;;
18806;SDS011;9531;52.030;4.380;2022-12-18T23:02:44;9.40;;;7.78;;
18806;SDS011;9531;52.030;4.380;2022-12-18T23:05:12;10.77;;;8.57;;
18806;SDS011;9531;52.030;4.380;2022-12-18T23:07:40;10.02;;;7.68;;
18806;SDS011;9531;52.030;4.380;2022-12-18T23:10:07;10.45;;;7.90;;
18806;SDS011;9531;52.030;4.380;2022-12-18T23:12:34;11.10;;;7.68;;
18806;SDS011;9531;52.030;4.380;2022-12-18T23:15:02;9.80;;;7.82;;
18806;SDS011;9531;52.030;4.380;2022-12-18T23:17:29;10.38;;;7.90;;
18806;SDS011;9531;52.030;4.380;2022-12-18T23:19:57;10.93;;;8.20;;
18806;SDS011;9531;52.030;4.380;2022-12-18T23:22:24;11.20;;;7.63;;
18806;SDS011;9531;52.030;4.380;2022-12-18T23:24:53;9.73;;;7.63;;
18806;SDS011;9531;52.030;4.380;2022-12-18T23:27:19;9.48;;;7.60;;
18806;SDS011;9531;52.030;4.380;2022-12-18T23:29:47;10.13;;;7.80;;
18806;SDS011;9531;52.030;4.380;2022-12-18T23:32:14;9.85;;;7.57;;
18806;SDS011;9531;52.030;4.380;2022-12-18T23:34:41;8.93;;;7.30;;
18806;SDS011;9531;52.030;4.380;2022-12-18T23:37:09;9.65;;;7.40;;
18806;SDS011;9531;52.030;4.380;2022-12-18T23:39:36;11.65;;;8.25;;
18806;SDS011;9531;52.030;4.380;2022-12-18T23:42:04;10.43;;;7.50;;
18806;SDS011;9531;52.030;4.380;2022-12-18T23:44:31;10.55;;;7.90;;
18806;SDS011;9531;52.030;4.380;2022-12-18T23:46:59;11.27;;;7.75;;
18806;SDS011;9531;52.030;4.380;2022-12-18T23:49:31;9.32;;;7.53;;
18806;SDS011;9531;52.030;4.380;2022-12-18T23:51:58;18.30;;;10.30;;
18806;SDS011;9531;52.030;4.380;2022-12-18T23:54:25;12.23;;;8.57;;
18806;SDS011;9531;52.030;4.380;2022-12-18T23:56:52;11.07;;;8.48;;
18806;SDS011;9531;52.030;4.380;2022-12-18T23:59:21;11.52;;;8.02;;
